sensor_id;sensor_type;location;lat;lon;timestamp;P1;durP1;ratioP1;P2;durP2;ratioP2
13071;SDS011;6602;58.934;11.166;2023-02-28T00:04:37;3.27;;;1.80;;
13071;SDS011;6602;58.934;11.166;2023-02-28T00:09:52;3.10;;;1.90;;
13071;SDS011;6602;58.934;11.166;2023-02-28T00:14:54;2.33;;;1.60;;
13071;SDS011;6602;58.934;11.166;2023-02-28T00:20:05;4.17;;;2.03;;
13071;SDS011;6602;58.934;11.166;2023-02-28T00:25:20;3.23;;;2.03;;
13071;SDS011;6602;58.934;11.166;2023-02-28T00:30:42;3.23;;;1.97;;
13071;SDS011;6602;58.934;11.166;2023-02-28T00:35:43;2.07;;;1.50;;
13071;SDS011;6602;58.934;11.166;2023-02-28T00:40:53;6.10;;;2.70;;
13071;SDS011;6602;58.934;11.166;2023-02-28T00:45:57;3.13;;;2.00;;
13071;SDS011;6602;58.934;11.166;2023-02-28T00:51:01;5.17;;;1.90;;
13071;SDS011;6602;58.934;11.166;2023-02-28T01:01:09;3.47;;;1.63;;
13071;SDS011;6602;58.934;11.166;2023-02-28T01:06:15;3.27;;;1.50;;
13071;SDS011;6602;58.934;11.166;2023-02-28T01:11:16;2.10;;;1.60;;
13071;SDS011;6602;58.934;11.166;2023-02-28T01:16:24;1.80;;;1.23;;
13071;SDS011;6602;58.934;11.166;2023-02-28T01:21:27;2.80;;;1.33;;
13071;SDS011;6602;58.934;11.166;2023-02-28T01:26:32;6.73;;;1.90;;
13071;SDS011;6602;58.934;11.166;2023-02-28T01:31:36;3.97;;;1.83;;
13071;SDS011;6602;58.934;11.166;2023-02-28T01:36:55;3.13;;;1.63;;
13071;SDS011;6602;58.934;11.166;2023-02-28T01:42:17;1.20;;;1.07;;
13071;SDS011;6602;58.934;11.166;2023-02-28T01:47:29;2.90;;;2.07;;
13071;SDS011;6602;58.934;11.166;2023-02-28T01:52:55;1.90;;;1.23;;
13071;SDS011;6602;58.934;11.166;2023-02-28T01:58:05;3.07;;;1.50;;
13071;SDS011;6602;58.934;11.166;2023-02-28T02:03:27;5.60;;;1.37;;
13071;SDS011;6602;58.934;11.166;2023-02-28T02:08:39;2.37;;;1.63;;
13071;SDS011;6602;58.934;11.166;2023-02-28T02:41:50;2.87;;;1.80;;
13071;SDS011;6602;58.934;11.166;2023-02-28T02:47:02;2.80;;;1.60;;
13071;SDS011;6602;58.934;11.166;2023-02-28T02:52:14;7.00;;;5.00;;
13071;SDS011;6602;58.934;11.166;2023-02-28T02:57:26;4.23;;;1.67;;
13071;SDS011;6602;58.934;11.166;2023-02-28T03:02:41;2.53;;;1.53;;
13071;SDS011;6602;58.934;11.166;2023-02-28T03:07:46;4.20;;;1.77;;
13071;SDS011;6602;58.934;11.166;2023-02-28T03:13:32;4.70;;;1.80;;
13071;SDS011;6602;58.934;11.166;2023-02-28T03:18:58;5.60;;;1.70;;
13071;SDS011;6602;58.934;11.166;2023-02-28T03:29:39;5.83;;;2.00;;
13071;SDS011;6602;58.934;11.166;2023-02-28T03:34:57;2.27;;;1.80;;
13071;SDS011;6602;58.934;11.166;2023-02-28T03:40:10;3.70;;;1.63;;
13071;SDS011;6602;58.934;11.166;2023-02-28T03:45:27;3.33;;;1.43;;
13071;SDS011;6602;58.934;11.166;2023-02-28T03:50:46;4.03;;;1.80;;
13071;SDS011;6602;58.934;11.166;2023-02-28T03:55:54;2.43;;;1.70;;
13071;SDS011;6602;58.934;11.166;2023-02-28T04:01:16;3.63;;;2.00;;
13071;SDS011;6602;58.934;11.166;2023-02-28T04:06:24;4.90;;;1.77;;
13071;SDS011;6602;58.934;11.166;2023-02-28T04:16:39;3.23;;;1.93;;
13071;SDS011;6602;58.934;11.166;2023-02-28T04:21:42;3.77;;;2.30;;
13071;SDS011;6602;58.934;11.166;2023-02-28T04:26:48;5.40;;;1.80;;
13071;SDS011;6602;58.934;11.166;2023-02-28T04:31:56;3.23;;;1.37;;
13071;SDS011;6602;58.934;11.166;2023-02-28T04:37:09;2.43;;;1.67;;
13071;SDS011;6602;58.934;11.166;2023-02-28T04:42:11;2.40;;;1.50;;
13071;SDS011;6602;58.934;11.166;2023-02-28T04:47:12;2.60;;;1.37;;
13071;SDS011;6602;58.934;11.166;2023-02-28T04:52:17;2.33;;;1.40;;
13071;SDS011;6602;58.934;11.166;2023-02-28T04:57:18;4.40;;;2.00;;
13071;SDS011;6602;58.934;11.166;2023-02-28T05:02:19;3.07;;;1.80;;
13071;SDS011;6602;58.934;11.166;2023-02-28T05:07:24;5.70;;;2.50;;
13071;SDS011;6602;58.934;11.166;2023-02-28T05:12:28;2.40;;;1.43;;
13071;SDS011;6602;58.934;11.166;2023-02-28T05:17:31;2.63;;;1.70;;
13071;SDS011;6602;58.934;11.166;2023-02-28T05:22:36;10.90;;;3.33;;
13071;SDS011;6602;58.934;11.166;2023-02-28T05:27:42;11.27;;;4.17;;
13071;SDS011;6602;58.934;11.166;2023-02-28T05:32:44;3.07;;;2.00;;
13071;SDS011;6602;58.934;11.166;2023-02-28T05:37:51;4.00;;;2.37;;
13071;SDS011;6602;58.934;11.166;2023-02-28T05:43:17;2.67;;;1.70;;
13071;SDS011;6602;58.934;11.166;2023-02-28T05:48:23;3.23;;;1.80;;
13071;SDS011;6602;58.934;11.166;2023-02-28T05:53:26;3.93;;;1.90;;
13071;SDS011;6602;58.934;11.166;2023-02-28T05:58:28;3.23;;;1.70;;
13071;SDS011;6602;58.934;11.166;2023-02-28T06:03:36;2.93;;;1.97;;
13071;SDS011;6602;58.934;11.166;2023-02-28T06:08:56;2.37;;;1.77;;
13071;SDS011;6602;58.934;11.166;2023-02-28T06:13:59;9.13;;;6.33;;
13071;SDS011;6602;58.934;11.166;2023-02-28T06:19:02;2.70;;;1.80;;
13071;SDS011;6602;58.934;11.166;2023-02-28T06:24:03;2.77;;;2.07;;
13071;SDS011;6602;58.934;11.166;2023-02-28T06:29:10;2.07;;;1.70;;
13071;SDS011;6602;58.934;11.166;2023-02-28T06:34:17;1.90;;;1.53;;
13071;SDS011;6602;58.934;11.166;2023-02-28T06:39:18;2.67;;;1.50;;
13071;SDS011;6602;58.934;11.166;2023-02-28T06:44:19;2.80;;;1.53;;
13071;SDS011;6602;58.934;11.166;2023-02-28T06:49:24;3.97;;;1.83;;
13071;SDS011;6602;58.934;11.166;2023-02-28T06:54:25;2.90;;;1.40;;
13071;SDS011;6602;58.934;11.166;2023-02-28T06:59:26;3.87;;;1.83;;
13071;SDS011;6602;58.934;11.166;2023-02-28T07:04:33;2.70;;;1.90;;
13071;SDS011;6602;58.934;11.166;2023-02-28T07:09:47;2.33;;;1.70;;
13071;SDS011;6602;58.934;11.166;2023-02-28T07:14:47;3.83;;;2.10;;
13071;SDS011;6602;58.934;11.166;2023-02-28T07:20:00;3.90;;;2.03;;
13071;SDS011;6602;58.934;11.166;2023-02-28T07:25:05;4.87;;;1.87;;
13071;SDS011;6602;58.934;11.166;2023-02-28T07:30:07;2.80;;;1.77;;
13071;SDS011;6602;58.934;11.166;2023-02-28T07:35:08;4.40;;;1.77;;
13071;SDS011;6602;58.934;11.166;2023-02-28T07:40:20;3.60;;;1.70;;
13071;SDS011;6602;58.934;11.166;2023-02-28T07:45:21;2.67;;;1.37;;
13071;SDS011;6602;58.934;11.166;2023-02-28T07:50:22;3.50;;;1.93;;
13071;SDS011;6602;58.934;11.166;2023-02-28T07:55:31;4.73;;;1.60;;
13071;SDS011;6602;58.934;11.166;2023-02-28T08:00:51;3.70;;;1.50;;
13071;SDS011;6602;58.934;11.166;2023-02-28T08:06:16;2.47;;;1.20;;
13071;SDS011;6602;58.934;11.166;2023-02-28T08:11:40;6.47;;;1.90;;
13071;SDS011;6602;58.934;11.166;2023-02-28T08:16:49;2.30;;;1.57;;
13071;SDS011;6602;58.934;11.166;2023-02-28T08:22:08;3.20;;;1.77;;
13071;SDS011;6602;58.934;11.166;2023-02-28T08:27:28;1.67;;;1.30;;
13071;SDS011;6602;58.934;11.166;2023-02-28T08:32:36;3.70;;;1.70;;
13071;SDS011;6602;58.934;11.166;2023-02-28T08:37:43;2.73;;;1.33;;
13071;SDS011;6602;58.934;11.166;2023-02-28T08:43:05;3.47;;;1.37;;
13071;SDS011;6602;58.934;11.166;2023-02-28T08:48:30;1.90;;;1.20;;
13071;SDS011;6602;58.934;11.166;2023-02-28T08:53:52;1.67;;;1.30;;
13071;SDS011;6602;58.934;11.166;2023-02-28T08:59:15;1.93;;;1.30;;
13071;SDS011;6602;58.934;11.166;2023-02-28T09:04:35;2.40;;;1.50;;
13071;SDS011;6602;58.934;11.166;2023-02-28T09:09:56;1.57;;;1.20;;
13071;SDS011;6602;58.934;11.166;2023-02-28T09:15:18;0.60;;;0.60;;
13071;SDS011;6602;58.934;11.166;2023-02-28T09:20:40;0.90;;;0.67;;
13071;SDS011;6602;58.934;11.166;2023-02-28T09:26:00;3.03;;;1.00;;
13071;SDS011;6602;58.934;11.166;2023-02-28T09:31:24;1.73;;;0.90;;
13071;SDS011;6602;58.934;11.166;2023-02-28T09:36:46;1.43;;;0.60;;
13071;SDS011;6602;58.934;11.166;2023-02-28T09:42:11;1.97;;;0.60;;
13071;SDS011;6602;58.934;11.166;2023-02-28T09:47:41;1.53;;;0.60;;
13071;SDS011;6602;58.934;11.166;2023-02-28T09:53:14;1.33;;;0.90;;
13071;SDS011;6602;58.934;11.166;2023-02-28T09:58:56;1.97;;;1.10;;
13071;SDS011;6602;58.934;11.166;2023-02-28T10:10:03;2.00;;;0.53;;
13071;SDS011;6602;58.934;11.166;2023-02-28T10:15:51;0.70;;;0.40;;
13071;SDS011;6602;58.934;11.166;2023-02-28T10:21:23;0.93;;;0.40;;
13071;SDS011;6602;58.934;11.166;2023-02-28T10:26:48;0.77;;;0.47;;
13071;SDS011;6602;58.934;11.166;2023-02-28T10:32:13;1.90;;;0.30;;
13071;SDS011;6602;58.934;11.166;2023-02-28T10:37:40;1.03;;;0.50;;
13071;SDS011;6602;58.934;11.166;2023-02-28T10:43:05;2.73;;;0.93;;
13071;SDS011;6602;58.934;11.166;2023-02-28T10:48:32;0.57;;;0.30;;
13071;SDS011;6602;58.934;11.166;2023-02-28T10:53:54;0.83;;;0.83;;
13071;SDS011;6602;58.934;11.166;2023-02-28T10:59:28;0.20;;;0.20;;
13071;SDS011;6602;58.934;11.166;2023-02-28T11:04:49;5.07;;;0.30;;
13071;SDS011;6602;58.934;11.166;2023-02-28T11:10:16;1.53;;;0.20;;
13071;SDS011;6602;58.934;11.166;2023-02-28T11:15:41;0.97;;;0.30;;
13071;SDS011;6602;58.934;11.166;2023-02-28T11:21:00;0.20;;;0.20;;
13071;SDS011;6602;58.934;11.166;2023-02-28T11:26:35;0.30;;;0.20;;
13071;SDS011;6602;58.934;11.166;2023-02-28T11:37:22;0.40;;;0.20;;
13071;SDS011;6602;58.934;11.166;2023-02-28T11:42:57;0.20;;;0.20;;
13071;SDS011;6602;58.934;11.166;2023-02-28T11:55:16;0.10;;;0.10;;
13071;SDS011;6602;58.934;11.166;2023-02-28T12:00:49;0.20;;;0.20;;
13071;SDS011;6602;58.934;11.166;2023-02-28T12:06:24;2.00;;;0.30;;
13071;SDS011;6602;58.934;11.166;2023-02-28T12:29:16;2.80;;;1.63;;
13071;SDS011;6602;58.934;11.166;2023-02-28T12:40:31;2.97;;;2.00;;
13071;SDS011;6602;58.934;11.166;2023-02-28T12:51:45;1.70;;;1.10;;
13071;SDS011;6602;58.934;11.166;2023-02-28T13:03:17;1.57;;;0.80;;
13071;SDS011;6602;58.934;11.166;2023-02-28T13:13:57;1.73;;;1.00;;
13071;SDS011;6602;58.934;11.166;2023-02-28T13:19:57;1.80;;;0.87;;
13071;SDS011;6602;58.934;11.166;2023-02-28T13:41:43;1.37;;;0.40;;
13071;SDS011;6602;58.934;11.166;2023-02-28T13:52:23;0.60;;;0.50;;
13071;SDS011;6602;58.934;11.166;2023-02-28T14:09:25;0.80;;;0.50;;
13071;SDS011;6602;58.934;11.166;2023-02-28T14:14:59;2.73;;;0.50;;
13071;SDS011;6602;58.934;11.166;2023-02-28T14:20:26;0.63;;;0.30;;
13071;SDS011;6602;58.934;11.166;2023-02-28T14:31:38;0.23;;;0.23;;
13071;SDS011;6602;58.934;11.166;2023-02-28T14:37:26;1.57;;;0.23;;
13071;SDS011;6602;58.934;11.166;2023-02-28T14:42:58;1.40;;;0.57;;
13071;SDS011;6602;58.934;11.166;2023-02-28T14:48:24;2.63;;;0.50;;
13071;SDS011;6602;58.934;11.166;2023-02-28T14:53:45;1.20;;;0.30;;
13071;SDS011;6602;58.934;11.166;2023-02-28T14:59:30;0.30;;;0.30;;
13071;SDS011;6602;58.934;11.166;2023-02-28T15:04:56;1.67;;;0.40;;
13071;SDS011;6602;58.934;11.166;2023-02-28T15:16:03;2.00;;;0.37;;
13071;SDS011;6602;58.934;11.166;2023-02-28T15:21:41;0.40;;;0.37;;
13071;SDS011;6602;58.934;11.166;2023-02-28T15:27:09;2.57;;;0.60;;
13071;SDS011;6602;58.934;11.166;2023-02-28T15:32:35;0.40;;;0.40;;
13071;SDS011;6602;58.934;11.166;2023-02-28T15:38:03;0.87;;;0.47;;
13071;SDS011;6602;58.934;11.166;2023-02-28T15:43:36;0.80;;;0.53;;
13071;SDS011;6602;58.934;11.166;2023-02-28T15:48:57;0.40;;;0.40;;
13071;SDS011;6602;58.934;11.166;2023-02-28T15:54:22;0.60;;;0.50;;
13071;SDS011;6602;58.934;11.166;2023-02-28T15:59:48;0.37;;;0.37;;
13071;SDS011;6602;58.934;11.166;2023-02-28T16:10:29;1.07;;;0.40;;
13071;SDS011;6602;58.934;11.166;2023-02-28T16:15:46;2.20;;;0.50;;
13071;SDS011;6602;58.934;11.166;2023-02-28T16:21:08;0.50;;;0.50;;
13071;SDS011;6602;58.934;11.166;2023-02-28T16:26:27;0.40;;;0.40;;
13071;SDS011;6602;58.934;11.166;2023-02-28T16:31:47;2.00;;;0.70;;
13071;SDS011;6602;58.934;11.166;2023-02-28T16:37:15;0.67;;;0.57;;
13071;SDS011;6602;58.934;11.166;2023-02-28T16:42:36;3.70;;;0.60;;
13071;SDS011;6602;58.934;11.166;2023-02-28T16:47:57;2.70;;;0.80;;
13071;SDS011;6602;58.934;11.166;2023-02-28T16:53:16;0.80;;;0.47;;
13071;SDS011;6602;58.934;11.166;2023-02-28T16:58:36;1.20;;;0.50;;
13071;SDS011;6602;58.934;11.166;2023-02-28T17:03:55;0.87;;;0.80;;
13071;SDS011;6602;58.934;11.166;2023-02-28T17:09:16;1.07;;;0.90;;
13071;SDS011;6602;58.934;11.166;2023-02-28T17:14:38;1.50;;;0.87;;
13071;SDS011;6602;58.934;11.166;2023-02-28T17:19:58;0.70;;;0.60;;
13071;SDS011;6602;58.934;11.166;2023-02-28T17:25:24;0.87;;;0.70;;
13071;SDS011;6602;58.934;11.166;2023-02-28T17:30:45;1.27;;;0.93;;
13071;SDS011;6602;58.934;11.166;2023-02-28T17:36:08;1.17;;;0.70;;
13071;SDS011;6602;58.934;11.166;2023-02-28T17:41:36;3.07;;;0.77;;
13071;SDS011;6602;58.934;11.166;2023-02-28T17:46:56;4.70;;;1.53;;
13071;SDS011;6602;58.934;11.166;2023-02-28T17:52:17;1.80;;;0.80;;
13071;SDS011;6602;58.934;11.166;2023-02-28T17:57:37;7.93;;;2.87;;
13071;SDS011;6602;58.934;11.166;2023-02-28T18:02:58;4.73;;;3.13;;
13071;SDS011;6602;58.934;11.166;2023-02-28T18:08:18;8.30;;;2.40;;
13071;SDS011;6602;58.934;11.166;2023-02-28T18:13:39;1.53;;;1.40;;
13071;SDS011;6602;58.934;11.166;2023-02-28T18:18:58;7.73;;;2.13;;
13071;SDS011;6602;58.934;11.166;2023-02-28T18:24:21;6.50;;;3.80;;
13071;SDS011;6602;58.934;11.166;2023-02-28T18:29:42;6.80;;;3.37;;
13071;SDS011;6602;58.934;11.166;2023-02-28T18:35:01;11.37;;;4.77;;
13071;SDS011;6602;58.934;11.166;2023-02-28T18:40:24;9.77;;;3.97;;
13071;SDS011;6602;58.934;11.166;2023-02-28T18:45:44;14.67;;;7.90;;
13071;SDS011;6602;58.934;11.166;2023-02-28T18:56:35;17.03;;;5.70;;
13071;SDS011;6602;58.934;11.166;2023-02-28T19:01:54;4.03;;;2.50;;
13071;SDS011;6602;58.934;11.166;2023-02-28T19:07:16;7.50;;;3.83;;
13071;SDS011;6602;58.934;11.166;2023-02-28T19:12:36;7.73;;;3.63;;
13071;SDS011;6602;58.934;11.166;2023-02-28T19:18:03;9.53;;;3.23;;
13071;SDS011;6602;58.934;11.166;2023-02-28T19:23:22;4.17;;;2.50;;
13071;SDS011;6602;58.934;11.166;2023-02-28T19:28:41;18.00;;;8.13;;
13071;SDS011;6602;58.934;11.166;2023-02-28T19:34:01;30.00;;;11.53;;
13071;SDS011;6602;58.934;11.166;2023-02-28T19:39:21;22.67;;;9.43;;
13071;SDS011;6602;58.934;11.166;2023-02-28T19:44:42;5.57;;;3.60;;
13071;SDS011;6602;58.934;11.166;2023-02-28T19:50:09;12.40;;;7.10;;
13071;SDS011;6602;58.934;11.166;2023-02-28T19:55:33;19.07;;;9.00;;
13071;SDS011;6602;58.934;11.166;2023-02-28T20:00:54;13.30;;;6.90;;
13071;SDS011;6602;58.934;11.166;2023-02-28T20:06:13;8.00;;;4.83;;
13071;SDS011;6602;58.934;11.166;2023-02-28T20:11:33;7.63;;;4.67;;
13071;SDS011;6602;58.934;11.166;2023-02-28T20:16:38;10.70;;;4.17;;
13071;SDS011;6602;58.934;11.166;2023-02-28T20:22:00;8.97;;;4.33;;
13071;SDS011;6602;58.934;11.166;2023-02-28T20:27:22;11.97;;;4.90;;
13071;SDS011;6602;58.934;11.166;2023-02-28T20:32:42;14.63;;;5.77;;
13071;SDS011;6602;58.934;11.166;2023-02-28T20:38:02;13.93;;;5.77;;
13071;SDS011;6602;58.934;11.166;2023-02-28T20:43:25;17.20;;;8.40;;
13071;SDS011;6602;58.934;11.166;2023-02-28T20:48:46;9.43;;;4.30;;
13071;SDS011;6602;58.934;11.166;2023-02-28T20:54:07;5.20;;;3.03;;
13071;SDS011;6602;58.934;11.166;2023-02-28T20:59:29;3.67;;;2.13;;
13071;SDS011;6602;58.934;11.166;2023-02-28T21:04:49;5.23;;;2.80;;
13071;SDS011;6602;58.934;11.166;2023-02-28T21:10:09;8.50;;;3.10;;
13071;SDS011;6602;58.934;11.166;2023-02-28T21:15:36;5.23;;;2.90;;
13071;SDS011;6602;58.934;11.166;2023-02-28T21:21:00;7.73;;;2.40;;
13071;SDS011;6602;58.934;11.166;2023-02-28T21:26:22;2.97;;;2.30;;
13071;SDS011;6602;58.934;11.166;2023-02-28T21:31:42;6.70;;;3.00;;
13071;SDS011;6602;58.934;11.166;2023-02-28T21:37:01;5.37;;;2.33;;
13071;SDS011;6602;58.934;11.166;2023-02-28T21:42:22;6.60;;;3.00;;
13071;SDS011;6602;58.934;11.166;2023-02-28T21:47:30;11.00;;;2.77;;
13071;SDS011;6602;58.934;11.166;2023-02-28T21:52:55;4.73;;;2.43;;
13071;SDS011;6602;58.934;11.166;2023-02-28T21:58:16;6.37;;;3.37;;
13071;SDS011;6602;58.934;11.166;2023-02-28T22:03:36;7.77;;;3.30;;
13071;SDS011;6602;58.934;11.166;2023-02-28T22:08:59;4.77;;;3.03;;
13071;SDS011;6602;58.934;11.166;2023-02-28T22:14:23;4.70;;;2.60;;
13071;SDS011;6602;58.934;11.166;2023-02-28T22:19:45;5.03;;;2.37;;
13071;SDS011;6602;58.934;11.166;2023-02-28T22:25:07;3.53;;;2.07;;
13071;SDS011;6602;58.934;11.166;2023-02-28T22:30:28;5.73;;;2.40;;
13071;SDS011;6602;58.934;11.166;2023-02-28T22:35:51;3.97;;;2.20;;
13071;SDS011;6602;58.934;11.166;2023-02-28T22:41:12;3.87;;;1.90;;
13071;SDS011;6602;58.934;11.166;2023-02-28T22:46:34;2.00;;;1.50;;
13071;SDS011;6602;58.934;11.166;2023-02-28T22:51:55;1.70;;;1.30;;
13071;SDS011;6602;58.934;11.166;2023-02-28T22:57:15;9.33;;;2.00;;
13071;SDS011;6602;58.934;11.166;2023-02-28T23:02:35;6.07;;;2.30;;
13071;SDS011;6602;58.934;11.166;2023-02-28T23:07:44;4.17;;;1.70;;
13071;SDS011;6602;58.934;11.166;2023-02-28T23:13:05;4.83;;;1.70;;
13071;SDS011;6602;58.934;11.166;2023-02-28T23:18:26;2.50;;;1.60;;
13071;SDS011;6602;58.934;11.166;2023-02-28T23:23:45;2.63;;;1.47;;
13071;SDS011;6602;58.934;11.166;2023-02-28T23:29:06;3.60;;;1.80;;
13071;SDS011;6602;58.934;11.166;2023-02-28T23:34:14;4.60;;;1.87;;
13071;SDS011;6602;58.934;11.166;2023-02-28T23:39:41;2.60;;;1.63;;
13071;SDS011;6602;58.934;11.166;2023-02-28T23:44:47;4.10;;;1.77;;
13071;SDS011;6602;58.934;11.166;2023-02-28T23:49:49;3.53;;;1.93;;
13071;SDS011;6602;58.934;11.166;2023-02-28T23:55:08;4.60;;;1.80;;
